sensor_id;sensor_type;location;lat;lon;timestamp;P1;durP1;ratioP1;P2;durP2;ratioP2
32746;SDS011;19118;50.860;13.662;2023-08-06T00:03:16;8.63;;;7.13;;
32746;SDS011;19118;50.860;13.662;2023-08-06T00:08:16;7.87;;;6.13;;
32746;SDS011;19118;50.860;13.662;2023-08-06T00:13:16;11.93;;;6.43;;
32746;SDS011;19118;50.860;13.662;2023-08-06T00:18:17;8.82;;;6.32;;
32746;SDS011;19118;50.860;13.662;2023-08-06T00:23:17;8.57;;;6.43;;
32746;SDS011;19118;50.860;13.662;2023-08-06T00:28:18;14.63;;;7.20;;
32746;SDS011;19118;50.860;13.662;2023-08-06T00:33:18;11.53;;;5.80;;
32746;SDS011;19118;50.860;13.662;2023-08-06T00:38:18;11.70;;;5.95;;
32746;SDS011;19118;50.860;13.662;2023-08-06T00:43:19;15.07;;;5.20;;
32746;SDS011;19118;50.860;13.662;2023-08-06T00:48:19;9.60;;;5.20;;
32746;SDS011;19118;50.860;13.662;2023-08-06T00:53:20;11.52;;;5.07;;
32746;SDS011;19118;50.860;13.662;2023-08-06T00:58:21;20.33;;;4.82;;
32746;SDS011;19118;50.860;13.662;2023-08-06T01:03:21;16.38;;;4.95;;
32746;SDS011;19118;50.860;13.662;2023-08-06T01:08:30;17.13;;;7.20;;
32746;SDS011;19118;50.860;13.662;2023-08-06T01:13:46;15.40;;;6.97;;
32746;SDS011;19118;50.860;13.662;2023-08-06T01:18:49;9.85;;;6.88;;
32746;SDS011;19118;50.860;13.662;2023-08-06T01:23:49;13.20;;;7.80;;
32746;SDS011;19118;50.860;13.662;2023-08-06T01:28:52;9.70;;;7.50;;
32746;SDS011;19118;50.860;13.662;2023-08-06T01:34:17;15.50;;;7.68;;
32746;SDS011;19118;50.860;13.662;2023-08-06T01:39:20;13.80;;;7.43;;
32746;SDS011;19118;50.860;13.662;2023-08-06T01:44:23;22.70;;;8.20;;
32746;SDS011;19118;50.860;13.662;2023-08-06T01:49:24;27.60;;;8.43;;
32746;SDS011;19118;50.860;13.662;2023-08-06T01:54:24;28.02;;;8.35;;
32746;SDS011;19118;50.860;13.662;2023-08-06T01:59:24;22.70;;;7.53;;
32746;SDS011;19118;50.860;13.662;2023-08-06T02:04:25;15.90;;;7.18;;
32746;SDS011;19118;50.860;13.662;2023-08-06T02:09:25;27.85;;;9.38;;
32746;SDS011;19118;50.860;13.662;2023-08-06T02:14:26;17.77;;;7.82;;
32746;SDS011;19118;50.860;13.662;2023-08-06T02:19:26;13.65;;;7.15;;
32746;SDS011;19118;50.860;13.662;2023-08-06T02:24:26;13.25;;;6.65;;
32746;SDS011;19118;50.860;13.662;2023-08-06T02:29:27;15.63;;;6.28;;
32746;SDS011;19118;50.860;13.662;2023-08-06T02:34:28;10.70;;;6.03;;
32746;SDS011;19118;50.860;13.662;2023-08-06T02:39:28;8.23;;;6.47;;
32746;SDS011;19118;50.860;13.662;2023-08-06T02:44:28;11.77;;;5.40;;
32746;SDS011;19118;50.860;13.662;2023-08-06T02:49:29;11.73;;;5.35;;
32746;SDS011;19118;50.860;13.662;2023-08-06T02:54:29;12.80;;;5.78;;
32746;SDS011;19118;50.860;13.662;2023-08-06T02:59:30;9.35;;;5.97;;
32746;SDS011;19118;50.860;13.662;2023-08-06T03:04:57;12.95;;;5.93;;
32746;SDS011;19118;50.860;13.662;2023-08-06T03:10:03;14.05;;;6.28;;
32746;SDS011;19118;50.860;13.662;2023-08-06T03:15:04;11.65;;;6.05;;
32746;SDS011;19118;50.860;13.662;2023-08-06T03:20:05;11.88;;;5.80;;
32746;SDS011;19118;50.860;13.662;2023-08-06T03:25:07;12.32;;;5.75;;
32746;SDS011;19118;50.860;13.662;2023-08-06T03:30:10;15.85;;;7.57;;
32746;SDS011;19118;50.860;13.662;2023-08-06T03:35:12;16.45;;;6.65;;
32746;SDS011;19118;50.860;13.662;2023-08-06T03:40:12;12.25;;;6.38;;
32746;SDS011;19118;50.860;13.662;2023-08-06T03:45:13;14.05;;;5.97;;
32746;SDS011;19118;50.860;13.662;2023-08-06T03:50:16;9.85;;;5.82;;
32746;SDS011;19118;50.860;13.662;2023-08-06T03:55:18;14.23;;;5.88;;
32746;SDS011;19118;50.860;13.662;2023-08-06T04:00:18;6.88;;;5.78;;
32746;SDS011;19118;50.860;13.662;2023-08-06T04:05:24;9.30;;;5.47;;
32746;SDS011;19118;50.860;13.662;2023-08-06T04:10:25;6.18;;;5.28;;
32746;SDS011;19118;50.860;13.662;2023-08-06T04:15:25;7.22;;;5.82;;
32746;SDS011;19118;50.860;13.662;2023-08-06T04:20:26;8.18;;;5.93;;
32746;SDS011;19118;50.860;13.662;2023-08-06T04:25:26;12.13;;;5.97;;
32746;SDS011;19118;50.860;13.662;2023-08-06T04:30:27;7.82;;;6.10;;
32746;SDS011;19118;50.860;13.662;2023-08-06T04:35:27;9.43;;;5.57;;
32746;SDS011;19118;50.860;13.662;2023-08-06T04:40:28;7.82;;;5.97;;
32746;SDS011;19118;50.860;13.662;2023-08-06T04:45:28;10.90;;;6.47;;
32746;SDS011;19118;50.860;13.662;2023-08-06T04:50:29;11.70;;;7.22;;
32746;SDS011;19118;50.860;13.662;2023-08-06T04:55:29;16.03;;;9.90;;
32746;SDS011;19118;50.860;13.662;2023-08-06T05:00:30;18.50;;;8.87;;
32746;SDS011;19118;50.860;13.662;2023-08-06T05:05:30;13.68;;;5.97;;
32746;SDS011;19118;50.860;13.662;2023-08-06T05:10:31;9.73;;;4.80;;
32746;SDS011;19118;50.860;13.662;2023-08-06T05:15:31;8.88;;;5.22;;
32746;SDS011;19118;50.860;13.662;2023-08-06T05:20:33;7.40;;;5.07;;
32746;SDS011;19118;50.860;13.662;2023-08-06T05:25:36;7.75;;;5.38;;
32746;SDS011;19118;50.860;13.662;2023-08-06T05:30:41;4.95;;;3.75;;
32746;SDS011;19118;50.860;13.662;2023-08-06T05:35:41;4.80;;;3.80;;
32746;SDS011;19118;50.860;13.662;2023-08-06T05:40:42;5.78;;;3.78;;
32746;SDS011;19118;50.860;13.662;2023-08-06T05:45:46;5.75;;;4.00;;
32746;SDS011;19118;50.860;13.662;2023-08-06T05:50:49;6.05;;;3.88;;
32746;SDS011;19118;50.860;13.662;2023-08-06T05:55:49;6.10;;;3.92;;
32746;SDS011;19118;50.860;13.662;2023-08-06T06:00:51;4.80;;;3.78;;
32746;SDS011;19118;50.860;13.662;2023-08-06T06:05:51;5.43;;;3.47;;
32746;SDS011;19118;50.860;13.662;2023-08-06T06:10:52;8.30;;;3.58;;
32746;SDS011;19118;50.860;13.662;2023-08-06T06:15:55;7.33;;;4.00;;
32746;SDS011;19118;50.860;13.662;2023-08-06T06:20:56;7.72;;;3.83;;
32746;SDS011;19118;50.860;13.662;2023-08-06T06:25:56;7.78;;;4.63;;
32746;SDS011;19118;50.860;13.662;2023-08-06T06:31:03;8.07;;;6.43;;
32746;SDS011;19118;50.860;13.662;2023-08-06T06:36:03;11.73;;;6.10;;
32746;SDS011;19118;50.860;13.662;2023-08-06T06:41:04;7.05;;;5.90;;
32746;SDS011;19118;50.860;13.662;2023-08-06T06:46:04;10.73;;;6.43;;
32746;SDS011;19118;50.860;13.662;2023-08-06T06:51:05;10.25;;;5.57;;
32746;SDS011;19118;50.860;13.662;2023-08-06T06:56:06;8.40;;;5.28;;
32746;SDS011;19118;50.860;13.662;2023-08-06T07:01:07;10.75;;;4.70;;
32746;SDS011;19118;50.860;13.662;2023-08-06T07:06:10;8.70;;;4.40;;
32746;SDS011;19118;50.860;13.662;2023-08-06T07:11:10;7.70;;;4.63;;
32746;SDS011;19118;50.860;13.662;2023-08-06T07:16:11;7.25;;;4.00;;
32746;SDS011;19118;50.860;13.662;2023-08-06T07:21:12;6.45;;;4.25;;
32746;SDS011;19118;50.860;13.662;2023-08-06T07:26:12;6.78;;;4.30;;
32746;SDS011;19118;50.860;13.662;2023-08-06T07:31:12;7.22;;;3.78;;
32746;SDS011;19118;50.860;13.662;2023-08-06T07:36:13;6.88;;;3.55;;
32746;SDS011;19118;50.860;13.662;2023-08-06T07:41:14;7.43;;;3.10;;
32746;SDS011;19118;50.860;13.662;2023-08-06T07:46:15;9.40;;;3.33;;
32746;SDS011;19118;50.860;13.662;2023-08-06T07:51:15;6.45;;;2.90;;
32746;SDS011;19118;50.860;13.662;2023-08-06T07:56:15;3.90;;;2.80;;
32746;SDS011;19118;50.860;13.662;2023-08-06T08:01:16;5.18;;;2.60;;
32746;SDS011;19118;50.860;13.662;2023-08-06T08:06:16;7.97;;;2.40;;
32746;SDS011;19118;50.860;13.662;2023-08-06T08:11:17;2.87;;;2.40;;
32746;SDS011;19118;50.860;13.662;2023-08-06T08:16:18;3.00;;;1.95;;
32746;SDS011;19118;50.860;13.662;2023-08-06T08:21:18;3.50;;;2.17;;
32746;SDS011;19118;50.860;13.662;2023-08-06T08:26:19;4.93;;;1.80;;
32746;SDS011;19118;50.860;13.662;2023-08-06T08:31:20;5.93;;;2.83;;
32746;SDS011;19118;50.860;13.662;2023-08-06T08:36:20;3.92;;;2.70;;
32746;SDS011;19118;50.860;13.662;2023-08-06T08:41:21;3.97;;;2.92;;
32746;SDS011;19118;50.860;13.662;2023-08-06T08:46:21;3.42;;;2.58;;
32746;SDS011;19118;50.860;13.662;2023-08-06T08:51:23;5.68;;;3.53;;
32746;SDS011;19118;50.860;13.662;2023-08-06T08:56:24;9.93;;;3.47;;
32746;SDS011;19118;50.860;13.662;2023-08-06T09:01:25;3.88;;;2.40;;
32746;SDS011;19118;50.860;13.662;2023-08-06T09:06:26;2.38;;;2.08;;
32746;SDS011;19118;50.860;13.662;2023-08-06T09:11:29;3.38;;;2.20;;
32746;SDS011;19118;50.860;13.662;2023-08-06T09:16:38;7.50;;;2.03;;
32746;SDS011;19118;50.860;13.662;2023-08-06T09:21:39;5.43;;;2.65;;
32746;SDS011;19118;50.860;13.662;2023-08-06T09:26:40;2.22;;;1.85;;
32746;SDS011;19118;50.860;13.662;2023-08-06T09:31:43;2.70;;;1.90;;
32746;SDS011;19118;50.860;13.662;2023-08-06T09:36:48;5.93;;;2.28;;
32746;SDS011;19118;50.860;13.662;2023-08-06T09:41:57;4.10;;;1.85;;
32746;SDS011;19118;50.860;13.662;2023-08-06T09:46:59;3.72;;;2.35;;
32746;SDS011;19118;50.860;13.662;2023-08-06T09:52:01;3.92;;;2.17;;
32746;SDS011;19118;50.860;13.662;2023-08-06T09:57:02;4.18;;;2.58;;
32746;SDS011;19118;50.860;13.662;2023-08-06T10:02:03;2.33;;;1.90;;
32746;SDS011;19118;50.860;13.662;2023-08-06T10:12:12;2.92;;;2.03;;
32746;SDS011;19118;50.860;13.662;2023-08-06T10:17:14;5.95;;;2.40;;
32746;SDS011;19118;50.860;13.662;2023-08-06T10:22:16;2.53;;;2.20;;
32746;SDS011;19118;50.860;13.662;2023-08-06T10:27:21;5.85;;;2.22;;
32746;SDS011;19118;50.860;13.662;2023-08-06T10:32:46;3.60;;;2.20;;
32746;SDS011;19118;50.860;13.662;2023-08-06T10:37:48;3.50;;;2.20;;
32746;SDS011;19118;50.860;13.662;2023-08-06T10:42:48;2.75;;;2.00;;
32746;SDS011;19118;50.860;13.662;2023-08-06T10:47:49;5.13;;;2.93;;
32746;SDS011;19118;50.860;13.662;2023-08-06T10:52:50;13.98;;;2.53;;
32746;SDS011;19118;50.860;13.662;2023-08-06T10:57:51;3.80;;;1.92;;
32746;SDS011;19118;50.860;13.662;2023-08-06T11:02:52;9.40;;;2.33;;
32746;SDS011;19118;50.860;13.662;2023-08-06T11:07:53;5.80;;;2.22;;
32746;SDS011;19118;50.860;13.662;2023-08-06T11:12:53;4.77;;;2.20;;
32746;SDS011;19118;50.860;13.662;2023-08-06T11:17:54;4.75;;;1.90;;
32746;SDS011;19118;50.860;13.662;2023-08-06T11:22:55;5.57;;;1.65;;
32746;SDS011;19118;50.860;13.662;2023-08-06T11:27:55;3.63;;;1.87;;
32746;SDS011;19118;50.860;13.662;2023-08-06T11:32:56;2.42;;;1.52;;
32746;SDS011;19118;50.860;13.662;2023-08-06T11:37:56;2.55;;;1.95;;
32746;SDS011;19118;50.860;13.662;2023-08-06T11:42:57;2.30;;;1.80;;
32746;SDS011;19118;50.860;13.662;2023-08-06T11:47:58;3.90;;;2.20;;
32746;SDS011;19118;50.860;13.662;2023-08-06T11:52:59;5.20;;;2.08;;
32746;SDS011;19118;50.860;13.662;2023-08-06T11:58:03;2.63;;;2.20;;
32746;SDS011;19118;50.860;13.662;2023-08-06T12:03:06;3.25;;;2.13;;
32746;SDS011;19118;50.860;13.662;2023-08-06T12:08:08;5.97;;;2.20;;
32746;SDS011;19118;50.860;13.662;2023-08-06T12:13:09;2.40;;;1.77;;
32746;SDS011;19118;50.860;13.662;2023-08-06T12:18:09;2.22;;;1.70;;
32746;SDS011;19118;50.860;13.662;2023-08-06T12:23:10;6.68;;;2.20;;
32746;SDS011;19118;50.860;13.662;2023-08-06T12:28:10;4.60;;;1.60;;
32746;SDS011;19118;50.860;13.662;2023-08-06T12:33:14;3.78;;;1.50;;
32746;SDS011;19118;50.860;13.662;2023-08-06T12:38:14;3.50;;;1.77;;
32746;SDS011;19118;50.860;13.662;2023-08-06T12:43:14;3.30;;;1.43;;
32746;SDS011;19118;50.860;13.662;2023-08-06T12:48:15;4.25;;;1.45;;
32746;SDS011;19118;50.860;13.662;2023-08-06T12:53:15;6.47;;;1.83;;
32746;SDS011;19118;50.860;13.662;2023-08-06T12:58:15;2.35;;;1.38;;
32746;SDS011;19118;50.860;13.662;2023-08-06T13:03:16;7.40;;;1.65;;
32746;SDS011;19118;50.860;13.662;2023-08-06T13:08:17;3.03;;;1.50;;
32746;SDS011;19118;50.860;13.662;2023-08-06T13:13:17;2.08;;;1.13;;
32746;SDS011;19118;50.860;13.662;2023-08-06T13:18:18;3.33;;;1.55;;
32746;SDS011;19118;50.860;13.662;2023-08-06T13:23:18;2.47;;;1.23;;
32746;SDS011;19118;50.860;13.662;2023-08-06T13:28:18;1.42;;;1.20;;
32746;SDS011;19118;50.860;13.662;2023-08-06T13:33:19;2.83;;;1.55;;
32746;SDS011;19118;50.860;13.662;2023-08-06T13:38:20;2.33;;;1.33;;
32746;SDS011;19118;50.860;13.662;2023-08-06T13:43:20;2.58;;;1.80;;
32746;SDS011;19118;50.860;13.662;2023-08-06T13:48:20;5.07;;;1.50;;
32746;SDS011;19118;50.860;13.662;2023-08-06T13:53:21;7.60;;;1.40;;
32746;SDS011;19118;50.860;13.662;2023-08-06T13:58:21;10.13;;;1.67;;
32746;SDS011;19118;50.860;13.662;2023-08-06T14:03:22;2.08;;;1.70;;
32746;SDS011;19118;50.860;13.662;2023-08-06T14:08:22;1.40;;;1.07;;
32746;SDS011;19118;50.860;13.662;2023-08-06T14:13:23;1.88;;;1.17;;
32746;SDS011;19118;50.860;13.662;2023-08-06T14:18:24;2.50;;;1.48;;
32746;SDS011;19118;50.860;13.662;2023-08-06T14:23:25;4.03;;;1.80;;
32746;SDS011;19118;50.860;13.662;2023-08-06T14:28:25;3.20;;;1.97;;
32746;SDS011;19118;50.860;13.662;2023-08-06T14:33:26;4.65;;;1.85;;
32746;SDS011;19118;50.860;13.662;2023-08-06T14:38:26;2.53;;;1.53;;
32746;SDS011;19118;50.860;13.662;2023-08-06T14:43:26;5.87;;;1.90;;
32746;SDS011;19118;50.860;13.662;2023-08-06T14:48:27;1.85;;;1.63;;
32746;SDS011;19118;50.860;13.662;2023-08-06T14:53:27;1.98;;;1.70;;
32746;SDS011;19118;50.860;13.662;2023-08-06T14:58:29;2.50;;;1.40;;
32746;SDS011;19118;50.860;13.662;2023-08-06T15:03:29;3.40;;;1.47;;
32746;SDS011;19118;50.860;13.662;2023-08-06T15:08:31;4.45;;;1.58;;
32746;SDS011;19118;50.860;13.662;2023-08-06T15:13:31;3.07;;;1.57;;
32746;SDS011;19118;50.860;13.662;2023-08-06T15:18:31;4.18;;;1.38;;
32746;SDS011;19118;50.860;13.662;2023-08-06T15:23:32;4.38;;;1.38;;
32746;SDS011;19118;50.860;13.662;2023-08-06T15:28:32;2.13;;;1.10;;
32746;SDS011;19118;50.860;13.662;2023-08-06T15:33:33;1.47;;;1.00;;
32746;SDS011;19118;50.860;13.662;2023-08-06T15:38:33;1.73;;;1.20;;
32746;SDS011;19118;50.860;13.662;2023-08-06T15:43:34;4.43;;;0.97;;
32746;SDS011;19118;50.860;13.662;2023-08-06T15:48:34;2.40;;;1.17;;
32746;SDS011;19118;50.860;13.662;2023-08-06T15:53:35;1.80;;;1.00;;
32746;SDS011;19118;50.860;13.662;2023-08-06T15:58:35;1.45;;;1.00;;
32746;SDS011;19118;50.860;13.662;2023-08-06T16:03:36;3.65;;;1.17;;
32746;SDS011;19118;50.860;13.662;2023-08-06T16:08:39;2.88;;;1.30;;
32746;SDS011;19118;50.860;13.662;2023-08-06T16:13:39;2.08;;;1.35;;
32746;SDS011;19118;50.860;13.662;2023-08-06T16:18:40;1.60;;;1.20;;
32746;SDS011;19118;50.860;13.662;2023-08-06T16:23:40;4.37;;;1.50;;
32746;SDS011;19118;50.860;13.662;2023-08-06T16:28:41;7.57;;;1.50;;
32746;SDS011;19118;50.860;13.662;2023-08-06T16:33:41;4.40;;;1.43;;
32746;SDS011;19118;50.860;13.662;2023-08-06T16:38:43;2.67;;;1.45;;
32746;SDS011;19118;50.860;13.662;2023-08-06T16:43:43;4.70;;;1.48;;
32746;SDS011;19118;50.860;13.662;2023-08-06T16:48:44;5.03;;;1.98;;
32746;SDS011;19118;50.860;13.662;2023-08-06T16:53:45;1.95;;;1.10;;
32746;SDS011;19118;50.860;13.662;2023-08-06T16:58:46;5.53;;;1.15;;
32746;SDS011;19118;50.860;13.662;2023-08-06T17:03:46;2.23;;;1.30;;
32746;SDS011;19118;50.860;13.662;2023-08-06T17:08:48;12.70;;;2.10;;
32746;SDS011;19118;50.860;13.662;2023-08-06T17:13:49;5.85;;;2.60;;
32746;SDS011;19118;50.860;13.662;2023-08-06T17:18:49;3.15;;;2.40;;
32746;SDS011;19118;50.860;13.662;2023-08-06T17:23:49;5.47;;;2.27;;
32746;SDS011;19118;50.860;13.662;2023-08-06T17:28:50;5.68;;;3.13;;
32746;SDS011;19118;50.860;13.662;2023-08-06T17:33:50;5.50;;;3.15;;
32746;SDS011;19118;50.860;13.662;2023-08-06T17:38:51;7.80;;;3.75;;
32746;SDS011;19118;50.860;13.662;2023-08-06T17:43:51;7.43;;;2.93;;
32746;SDS011;19118;50.860;13.662;2023-08-06T17:48:51;8.88;;;4.10;;
32746;SDS011;19118;50.860;13.662;2023-08-06T17:53:56;7.55;;;4.53;;
32746;SDS011;19118;50.860;13.662;2023-08-06T17:58:57;7.75;;;6.60;;
32746;SDS011;19118;50.860;13.662;2023-08-06T18:03:57;23.90;;;11.70;;
32746;SDS011;19118;50.860;13.662;2023-08-06T18:08:57;38.08;;;18.13;;
32746;SDS011;19118;50.860;13.662;2023-08-06T18:13:58;19.95;;;11.23;;
32746;SDS011;19118;50.860;13.662;2023-08-06T18:18:58;23.43;;;12.17;;
32746;SDS011;19118;50.860;13.662;2023-08-06T18:23:59;22.77;;;11.73;;
32746;SDS011;19118;50.860;13.662;2023-08-06T18:28:59;28.03;;;15.37;;
32746;SDS011;19118;50.860;13.662;2023-08-06T18:33:59;40.80;;;16.45;;
32746;SDS011;19118;50.860;13.662;2023-08-06T18:39:00;37.45;;;16.20;;
32746;SDS011;19118;50.860;13.662;2023-08-06T18:44:00;24.75;;;13.52;;
32746;SDS011;19118;50.860;13.662;2023-08-06T18:49:01;23.30;;;12.17;;
32746;SDS011;19118;50.860;13.662;2023-08-06T18:54:02;27.33;;;13.10;;
32746;SDS011;19118;50.860;13.662;2023-08-06T18:59:02;23.90;;;12.18;;
32746;SDS011;19118;50.860;13.662;2023-08-06T19:04:03;22.85;;;11.70;;
32746;SDS011;19118;50.860;13.662;2023-08-06T19:09:03;22.07;;;11.07;;
32746;SDS011;19118;50.860;13.662;2023-08-06T19:14:03;19.63;;;9.83;;
32746;SDS011;19118;50.860;13.662;2023-08-06T19:19:04;7.67;;;5.63;;
32746;SDS011;19118;50.860;13.662;2023-08-06T19:24:04;65.95;;;9.13;;
32746;SDS011;19118;50.860;13.662;2023-08-06T19:29:05;96.85;;;13.65;;
32746;SDS011;19118;50.860;13.662;2023-08-06T19:34:05;20.65;;;8.45;;
32746;SDS011;19118;50.860;13.662;2023-08-06T19:39:05;22.75;;;6.75;;
32746;SDS011;19118;50.860;13.662;2023-08-06T19:44:06;17.97;;;7.20;;
32746;SDS011;19118;50.860;13.662;2023-08-06T19:49:07;14.05;;;7.45;;
32746;SDS011;19118;50.860;13.662;2023-08-06T19:54:07;11.18;;;7.00;;
32746;SDS011;19118;50.860;13.662;2023-08-06T19:59:08;13.90;;;6.25;;
32746;SDS011;19118;50.860;13.662;2023-08-06T20:04:08;20.40;;;7.10;;
32746;SDS011;19118;50.860;13.662;2023-08-06T20:09:08;10.52;;;5.95;;
32746;SDS011;19118;50.860;13.662;2023-08-06T20:14:09;8.48;;;4.72;;
32746;SDS011;19118;50.860;13.662;2023-08-06T20:19:09;6.30;;;4.63;;
32746;SDS011;19118;50.860;13.662;2023-08-06T20:24:10;8.30;;;4.30;;
32746;SDS011;19118;50.860;13.662;2023-08-06T20:29:10;5.22;;;3.65;;
32746;SDS011;19118;50.860;13.662;2023-08-06T20:34:11;5.65;;;3.58;;
32746;SDS011;19118;50.860;13.662;2023-08-06T20:39:11;7.40;;;4.73;;
32746;SDS011;19118;50.860;13.662;2023-08-06T20:44:12;10.07;;;5.22;;
32746;SDS011;19118;50.860;13.662;2023-08-06T20:49:12;9.93;;;5.18;;
32746;SDS011;19118;50.860;13.662;2023-08-06T20:54:12;11.90;;;6.37;;
32746;SDS011;19118;50.860;13.662;2023-08-06T20:59:13;10.15;;;6.07;;
32746;SDS011;19118;50.860;13.662;2023-08-06T21:04:13;9.87;;;5.50;;
32746;SDS011;19118;50.860;13.662;2023-08-06T21:09:13;13.37;;;5.53;;
32746;SDS011;19118;50.860;13.662;2023-08-06T21:14:14;8.15;;;5.20;;
32746;SDS011;19118;50.860;13.662;2023-08-06T21:19:14;11.35;;;5.70;;
32746;SDS011;19118;50.860;13.662;2023-08-06T21:24:15;8.38;;;5.07;;
32746;SDS011;19118;50.860;13.662;2023-08-06T21:29:15;15.07;;;6.63;;
32746;SDS011;19118;50.860;13.662;2023-08-06T21:34:15;13.02;;;6.72;;
32746;SDS011;19118;50.860;13.662;2023-08-06T21:39:16;8.00;;;6.10;;
32746;SDS011;19118;50.860;13.662;2023-08-06T21:44:16;12.73;;;6.25;;
32746;SDS011;19118;50.860;13.662;2023-08-06T21:49:17;9.40;;;5.00;;
32746;SDS011;19118;50.860;13.662;2023-08-06T21:54:18;10.98;;;5.40;;
32746;SDS011;19118;50.860;13.662;2023-08-06T21:59:19;11.05;;;5.38;;
32746;SDS011;19118;50.860;13.662;2023-08-06T22:04:19;8.27;;;5.18;;
32746;SDS011;19118;50.860;13.662;2023-08-06T22:09:20;8.57;;;5.82;;
32746;SDS011;19118;50.860;13.662;2023-08-06T22:14:20;10.25;;;5.03;;
32746;SDS011;19118;50.860;13.662;2023-08-06T22:19:21;6.93;;;5.40;;
32746;SDS011;19118;50.860;13.662;2023-08-06T22:24:21;11.10;;;5.45;;
32746;SDS011;19118;50.860;13.662;2023-08-06T22:29:21;8.18;;;5.30;;
32746;SDS011;19118;50.860;13.662;2023-08-06T22:34:22;8.10;;;4.97;;
32746;SDS011;19118;50.860;13.662;2023-08-06T22:39:22;7.40;;;4.43;;
32746;SDS011;19118;50.860;13.662;2023-08-06T22:44:22;8.03;;;4.73;;
32746;SDS011;19118;50.860;13.662;2023-08-06T22:49:23;12.23;;;5.15;;
32746;SDS011;19118;50.860;13.662;2023-08-06T22:54:23;9.30;;;4.27;;
32746;SDS011;19118;50.860;13.662;2023-08-06T22:59:24;15.82;;;3.75;;
32746;SDS011;19118;50.860;13.662;2023-08-06T23:04:24;7.23;;;3.80;;
32746;SDS011;19118;50.860;13.662;2023-08-06T23:09:25;8.10;;;3.72;;
32746;SDS011;19118;50.860;13.662;2023-08-06T23:14:25;7.22;;;4.45;;
32746;SDS011;19118;50.860;13.662;2023-08-06T23:19:26;6.70;;;4.70;;
32746;SDS011;19118;50.860;13.662;2023-08-06T23:24:26;8.00;;;5.38;;
32746;SDS011;19118;50.860;13.662;2023-08-06T23:29:27;14.18;;;5.20;;
32746;SDS011;19118;50.860;13.662;2023-08-06T23:34:28;18.92;;;4.80;;
32746;SDS011;19118;50.860;13.662;2023-08-06T23:39:28;5.80;;;3.67;;
32746;SDS011;19118;50.860;13.662;2023-08-06T23:44:28;12.20;;;3.43;;
32746;SDS011;19118;50.860;13.662;2023-08-06T23:49:29;5.07;;;3.13;;
32746;SDS011;19118;50.860;13.662;2023-08-06T23:54:29;6.97;;;2.87;;
32746;SDS011;19118;50.860;13.662;2023-08-06T23:59:29;12.33;;;3.57;;
